cliquez pour ajouter le site Runraid à vos favoris  English version (google)  Retour à l'accueil Ecrire à l'auteur du site Runraid : Michel Jourdan



Les prochaines courses


Les derniers résultats

cliquez pour visualiser la page complète relatant la chronologie des éruptions du Piton de la Fournaise
éruptions Piton de la Fournaise


Ile de La Réunion

 Diagonale des Fous 

Ecrire au créateur du site : Michel Jourdan
Contact


2009-09-13 - Trail de la Côte d'Opale 33 km

Pour consulter le palmarès d'un coureur, un clic sur son nom !

Vous avez des remarques, corrections, ... sur ces résultats , un clic sur --> pour me transmettre toute information concernant les classements


Trail de la Côte d'Opale 33 km - 2009 : classement des 1193 finishers
Place Nom Temps Cat. Club Sexe Clt/cat.
Place Nom Temps Cat. Club Sexe Clt/cat.
1 NOWe Arnaud 2:11:13 SEM - M 1974
2 ISTACE Jose 2:13:12 V1M - M 1er V1M 1688
3 ICART Thierry 2:20:30 V1M - M 1001
4 LOQUET Thomas 2:21:46 SEM E.T.CHIeVRES M 1855
5 MASSON Franck 2:24:14 V1M - M 1898
6 MICHEL Sylvain 2:24:59 SEM SAEC M 2331
7 DELPLACE Alexandre 2:25:20 SEM - M 1371
8 ANDRe Nicolas 2:27:41 SEM - M 1029
9 FLIPO Gregoire 2:31:09 V1M STADE LONGUENES M 1540
10 BONELLO Pascal 2:31:23 V1M - M 1126
11 OUSTLANT Aurelien 2:31:29 SEM - F 1985
12 LEPOUTRE Bertrand 2:31:31 V1M US MARQUETTE M 1816
13 DANEL Jerome 2:32:11 SEM - M 1276
14 BRUSEL Philippe 2:33:35 SEM COURIR DANS LE M 1183
15 TALPAERT Felix 2:35:43 SEM - M 2180
16 FORTIN Jerome 2:36:08 SEM - M 1549
17 MAES Paul 2:36:17 ESM - M 1er Espoir M 1868
18 AVICE Micha 2:36:20 V1M CAP CONDE M 1041
19 MARQUANT Christophe 2:36:44 SEM AS SPORTIVE NAT M 1888
20 FAVIER Dominique 2:37:14 V1M - M 1525
21 MARQUIS Vincent 2:37:43 SEM OFFROAD M 1891
22 SOHIER Sylvain 2:37:54 SEM COURIR ? GRAVEL M 2158
23 DEGONDE Jean Jacques 2:38:28 V1M - M 1318
24 BIZE Remi 2:40:18 SEM - M 1107
25 FAGOT Anthony 2:40:30 SEM - M 1518
26 COPPIN Nicolas 2:40:34 SEM - M 1252
27 BRUNO Olivier 2:40:48 SEM OLYMPIQUE AIRE- M 1182
28 BOUDRY Francois 2:40:53 SEM - M 1148
29 RENAULT Bertrand 2:41:35 SEM - M 2078
30 GRAVE Laurent 2:41:44 SEM JOG GAZELEC DOU M 1625
31 LEMAIRE Christophe 2:43:03 V1M - M 1803
32 LECENDRE Olivier 2:43:18 SEM - M 1760
33 PIERCHON Bertrand 2:43:49 V1M - M 2020
34 NR 2337 2:43:49 XXX - 2337
35 GANGLOFF Pascal 2:44:22 SEM RAMBOUILLET SPO M 1574
36 HERMETZ Claude 2:44:27 V2M ASDH M 1er V2M 1668
37 DENAYS Roger 2:44:42 V1M CEPAL M 1386
38 SXAY Caroline 2:44:58 SEF - F 1ere F 2175
39 ARCELORMITTAL 2:45:09 EQ - 3907
40 ALLUITTE Regis 2:45:24 SEM VEOLIA EAU M 1019
41 BONNIER Samuel 2:45:40 V1M LA PATRIOTE CRO M 1132
42 FORTIN Franck 2:45:40 SEM - M 1548
43 FINDINIER Bertrand 2:45:41 SEM ESCAP AVENTURE M 1536
44 HENEMAN Guillaume 2:45:41 SEM GRAVELINES TRIA M 1661
45 BILLET Sebastien 2:45:58 SEM CAP SUR LA FORM M 1105
46 REMBUR Daniel 2:46:32 V1M - M 2072
47 JONCQUEL Jean Paul 2:46:42 V2M OPALE TRAIL NAT M 1698
48 MARGUET Christophe 2:46:44 SEM CDL M 1887
49 DUMORTIER Benjamin 2:47:09 SEM JAF M 1487
50 RICHARD Reginald 2:47:13 SEM - M 2083
51 LACOQUELLE Hugues 2:47:23 SEM OSM LOMME ATHLE M 1714
52 LEDEZ Jean Bernard 2:47:25 V1M - M 1773
53 PATRIGEON Thierry 2:47:28 SEM EAJSP M 1994
54 CREPIN Jose 2:47:34 SEM - M 1260
55 LEFEVRE Kevin 2:48:09 SEM AC OUTREAU M 1781
56 ROUSSEL Thierry 2:48:21 SEM - M 2106
57 ARZU Sebastien 2:48:33 SEM - M 1039
58 LESAGE Xavier 2:48:33 V1M - M 1829
59 GREMONT Arnaud 2:48:44 V1M - M 1627
60 DEMONT David 2:48:52 SEM - M 1385
61 BOUTTe Dominique 2:49:02 V1M - M 1164
62 DOYER Benjamin 2:49:13 SEM - M 1447
63 MAURAGE Pierre 2:49:20 SEM - M 1903
64 ANSEL Serge 2:49:29 V1M - M 1035
65 HAMELIN Cyril 2:49:44 SEM TRIATHLON CLUB M 259
66 DEPREZ Pascal 2:49:51 V1M JOG'ABLAIN M 1397
67 BRENET Laurent 2:49:58 SEM VAL DE SOMME M 1168
68 BARANZELLI Thierry 2:50:38 V1M HENIN ENDURANCE M 1051
69 NASKRET Ludovic 2:50:43 SEM - M 1964
70 MARQUANT Joel 2:50:44 V2M - M 2327
71 MONNIER Xavier 2:50:47 V1M - M 1936
72 RICHARD Olivier 2:50:48 SEM TRIATHLON CLUB M 2082
73 PAU Frederic 2:51:06 SEM - M 1996
74 CREVON Richard 2:51:10 V1M PIRANHAS M 1265
75 KRONUS Joel 2:51:20 V1M - M 1707
76 DEWAELE Michel 2:51:41 V2M TRIATHLON LITTO M 1428
77 HERY Broa 2:52:01 SEM - M 2326
78 GUILBERT Etienne 2:52:26 SEM BERCK ATHLETISM M 1642
79 CHAPUS Stanislas 2:52:51 V1M OPALE ORIENTATI M 1216
80 BEN Dominique 2:53:04 V2M MARCKATHLON M 1077
81 VERHEYEN Cedric 2:53:16 SEM - M 2263
82 BOURBIAUX Jose 2:53:31 SEM ASDH M 1154
83 DHILLY Frederic 2:53:45 SEM EUQUINGHEM RUNN M 1435
84 LIEVIN Pascal 2:53:46 V1M - M 1842
85 DE HERTOG Philippe 2:53:48 SEM AFRIT 7 M 1291
86 BARBIN Patrick 2:54:17 V1M - M 1053
87 LEICHT Stephane 2:54:19 V1M - M 1796
88 SERENT Pascal 2:54:32 SEM ATHLETIC CLUB M M 2134
89 CLEMENT Thierry 2:54:34 V1M OPALE CLEMENT C M 1237
90 HOUVENAGHEL Eddy 2:54:49 V1M - M 1679
91 LAIDEBEUR Pierre 2:54:55 V1M - M 1719
92 DEFOSSE Cedric 2:54:58 SEM - M 1313
93 SCHMIDT Benno 2:55:11 V2M CCI GRAND LILLE M 2126
94 VERRIEST Jessie 2:55:13 SEM FSPF M 2268
95 VASSEUR Didier 2:55:25 V1M - M 2252
96 DELHAYE Thierry 2:55:35 V1M COURIR ENSEMBLE M 1361
97 DENIERE Reynald 2:55:42 V1M - M 1388
98 TOUZe Thierry 2:55:49 V1M CSADN PARIS M 2202
99 PAILLARD Maxime 2:55:53 ESM - M 1987
100 BOUDRINGHIN Jean Marc 2:55:55 V1M COURIR CANTON C M 1147
101 FONCK Ludovic 2:56:02 SEM - M 1542
102 BOIDIN Olivier 2:56:29 V1M CSLG VILLENEUVE M 1124
103 VIEILLARD Benoit 2:56:29 SEM - M 2274
104 NAIRI Patrice 2:56:30 SEM - M 1963
105 HERBIN Olivier 2:56:33 V1M - M 1666
106 OLIVIER Robert 2:56:44 V2M - M 1982
107 DELOBELLE Christophe 2:56:47 SEM BLARINGHEM M 1364
108 WATEL Jean Francois 2:56:52 SEM ETAPLES TRIATHL M 2286
109 GONZALEZ Maxence 2:56:54 SEM - M 1611
110 SEMLALI Zaina 2:56:55 V1F CEPAL F 2eme F 2133
111 MAGOIS Francis 2:56:59 V1M - M 1874
112 DUSSAUSSOY Alain 2:57:22 V1M COLEMBERT M 1506
113 FORTIN Laurent 2:57:27 V1M - M 1550
114 TRZAN Jean Marc 2:57:32 V2M - M 2211
115 DESCAMPS Nicolas 2:57:32 SEM - M 1406
116 DELCROIX Yann 2:57:43 SEM - M 1351
117 GROULT Benjamin 2:57:51 SEM - M 1630
118 CHARLES Frederic 2:57:51 V1M - M 1217
119 MANTEZ Olivier 2:57:53 V1M - M 1880
120 COLEAU Bertrand 2:57:56 SEM - M 1244
121 ARVOIS Pascal 2:58:02 SEM - M 1038
122 GIRAUDOUX Jean Luc 2:58:05 V1M - M 1599
123 DUFOUR Fabrice 2:58:06 SEM - M 1477
124 FRANSEN Daniel 2:58:22 V1M LES TENDONS DeT M 1560
125 DELBOS Baptiste 2:58:22 SEM - M 1346
126 BRENET Rudy 2:58:32 SEM - M 1169
127 TRULLEMANS Alain 2:58:34 V2M RC NAMUR M 2209
128 BILLARD Stephane 2:58:35 SEM - M 1104
129 BEAL Olivier 2:58:41 SEM - M 1062
130 RIMBAULT Alain 2:58:46 V2M - M 2086
131 WILLAUME Gregory 2:58:52 V1M CHTI TRIATLILLE M 484
132 DUMONT Thierry 2:59:10 V1M - M 1486
133 JASKIEWICZ Yvan 2:59:25 SEM - M 1692
134 CLAIRET Richard 2:59:39 SEM OPALE ORIENTATI M 1234
135 DHENIN Frederic 2:59:48 SEM AS DU DISTRICT M 1434
136 GLORIEUX Nicolas 2:59:51 V1M - M 1603
137 CALON Christian 3:00:00 V1M AC OUTREAU M 1195
138 DENEVE Catherine 3:00:07 V1F - F 3eme F 1387
139 BABIN Nicolas 3:00:16 SEM - M 1043
140 BLANPAIN Marine 3:00:24 XXX - 1111
141 MIGNON Jean Pol 3:00:24 V1M JOYEUX JOGGEURS M 1919
142 DELAVAL Philippe 3:00:31 SEM - M 1341
143 BOIDIN Pierre 3:00:37 V1M PICQUIGNY RC M 1125
144 BOTTE Jean Francois 3:00:47 V1M 2 WTAC M 1140
145 CNUDDE Guillaume 3:01:00 V1M - M 1239
146 CHOUROT Lucien 3:01:06 V2M DRAPEAU LE PORT M 1229
147 ROSE Frederic 3:01:06 V1M AC OUTREAU M 1297
148 IMS 3:01:10 EQ - 3904
149 CAILLET Bruno 3:01:13 SEM - M 1192
150 MOY Park 3:01:20 EQ - 3906
151 CUDENNEC Bertrand 3:01:22 SEM - M 1270
152 VANDINGENEN Romuald 3:01:29 V1M - M 2242
153 POULET Jean Luc 3:01:30 V1M COURIR AU MONT M 2042
154 DEFACHELLES Herve 3:01:31 SEM PATRIOTE CROSS M 1311
155 HAERINCK Xavier 3:01:46 XXX MEVE 1646
156 PAUWELS Jean Pierre 3:01:48 V2M - M 1997
157 LOZANO Thomas 3:01:48 SEM - M 1861
158 TERROIR Laetitia 3:01:50 SEF - F 4eme Feminine 2186
159 ZAJAC Romaric 3:01:55 SEM - M 2317
160 LEMOINE Vincent 3:02:24 SEM - M 1808
161 BLANPAIN Jean Pierre 3:02:25 V1M COURIR A GRAVEL M 1110
162 DESTOMBES Benoit 3:02:27 XXX VISTEON 1420
163 PERARD David 3:02:37 SEM EMA M 2005
164 SODEN Sylvie 3:02:38 V1F AC OUTREAU F 5eme Feminine 2157
165 BATTE Arnaud 3:02:38 SEM AC OUTREAU M 1058
166 DECONINCK Christian 3:02:53 V2M - M 1306
167 SAGOT Philippe 3:03:01 V1M ASCAI M 2114
168 WATINE Felix 3:03:01 SEM - M 2290
169 RIVOIRE Xavier 3:03:02 V1M - M 2092
170 DEPRe Luc 3:03:03 V1M - M 1393
171 DEBOUDT Olivier 3:03:07 V1M - M 1295
172 PENEZ Jean Jacques 3:03:25 V1M - M 2003
173 DELVALLEE Ludovic 3:03:25 SEM - M 1376
174 NUYTTENS Franck 3:03:43 SEM - M 1976
175 MAREY Chris 3:03:50 SEM - M 1886
176 COTTRET Jerome 3:03:59 SEM - M 2322
177 JACQUES Julien 3:04:00 SEM COURIR A BAISIE M 1690
178 DECOSTER Remi 3:04:10 SEM - M 1308
179 DEKOKER Cedric 3:04:13 SEM AS TEAM ENDURAN M 1328
180 BASUYAUX Olivier 3:04:14 V2M ATHLE HALLUIN V M 1056
181 WALLeE Alain 3:04:20 V2M TENDONS M 2280
182 LEJEUNE Olivier 3:04:40 V1M FOOTING CLUB DE M 1798
183 SIMON Eric 3:04:46 V1M - M 2150
184 4 Assur 3:04:49 EQ - 3901
185 FAMELART Michel 3:05:06 V1M E.T.CHIEVRES M 1520
186 DEMBREMENT Stephane 3:05:22 V1M A C OUTREAU M 1380
187 DELPORTE Eric 3:05:37 SEM - M 1373
188 IOOS Romain 3:05:39 SEM - M 268
189 BIZET Nicolas 3:05:42 V1M - M 1108
190 GARCIA Maxime 3:05:45 SEM TEAM RAIDLIGHT M 1576
191 GONS Jean Francois 3:05:47 V1M - M 1610
192 RINGUET Frederic 3:05:57 V1M - M 2087
193 PERARD Thierry 3:05:58 V1M - M 2006
194 MALBRANQUE Philippe 3:06:00 V2M GRIZZLY M 1876
195 LECOUFFE Herve 3:06:00 SEM - M 1770
196 GILLAS Fabrice 3:06:05 V1M - M 1595
197 LESNE Didier 3:06:05 V1M LDLV M 1831
198 RENOUARD Lo 3:06:08 SEM - M 2079
199 BIGOT Michel 3:06:14 V1M - M 1102
200 GRAS Marie 3:06:17 SEF - F 1622
201 PERES Denis 3:06:37 V1M PLM CONFLANS M 2009
202 VEESRE Delphine 3:07:04 SEF BERCK ATHLETISM F 2255
203 CALOT Stephane 3:07:06 SEM CSLG BELLEY M 1196
204 LE BERRE Guillaume 3:07:16 SEM - M 1741
205 DANET Laurent 3:07:21 V1M ERQUINGHEM RUNN M 1277
206 PARISI Lucas 3:07:24 SEM - M 1990
207 ALOY Guy 3:07:32 V2M - M 1020
208 LEBEAU Pierre 3:07:36 SEM - M 1748
209 DERAED Xavier 3:07:43 XXX ACW 1399
210 DEPREZ Olivier 3:07:51 V1M - M 1396
211 SIZAIRE Alain 3:07:51 V1M - M 2152
212 LE CORNEC Lo 3:08:06 SEM - M 1742
213 DE HERTOG Pascal 3:08:17 V1M AFRIT 7 M 1290
214 LEVIELLE Stephane 3:08:17 V1M ASSOCIATION AVE M 1837
215 MOREAU Patrice 3:08:27 SEM - M 1942
216 NEYRINCK Aurelie 3:08:28 SEF - F 1971
217 FEBWIN Frederic 3:08:29 SEM - M 1527
218 PETIT David 3:08:30 SEM - M 2015
219 TARRIN Gilles 3:08:33 V1M - M 2182
220 DOUILLEZ Vincent 3:08:34 V1M - M 1446
221 LECLER Florent 3:08:34 SEM - M 1762
222 DELPIERRE Stephane 3:08:41 V1M - M 1370
223 LECLERCQ Laurent 3:08:44 V1M - M 1764
224 MEGAL Emmanuel 3:08:44 SEM - M 1904
225 FLAMENT Lionel 3:08:48 V2M STADE LONGUENES M 1539
226 GIGADEN Frank 3:09:02 SEM - M 1592
227 DUFLOS Henri Louis 3:09:07 V1M - M 1475
228 DECAN Patrick 3:09:25 V1M RCE M 1301
229 PRZYBYLSKI Guillaume 3:09:27 SEM - M 2051
230 PATIN Ludovic 3:09:31 V1M PIRANHAS M 1993
231 BENET Thierry 3:09:31 V1M - M 1078
232 LECOMTE Emmanuel 3:09:31 XXX - 1768
233 REGNIER Franck 3:09:32 V1M - M 2070
234 CUVILLIER Frederic 3:09:34 V1M - M 1271
235 DUSZA Serge 3:09:36 SEM - M 1507
236 DUPORT Regis 3:09:37 SEM LES DeGLINGOS M 1493
237 BODART Fabien 3:09:41 SEM - M 1121
238 LOBRY Cedric 3:09:49 SEM ATHLETIC COEUR M 1848
239 DHUYVETTER Johan 3:09:52 V1M JOGGINGCLUB WEV M 1437
240 RANSON Herve 3:09:58 V1M - M 2064
241 FROISSART Ludovic 3:10:08 SEM - M 1565
242 PALLADINI Guillaume 3:10:13 SEM - M 1989
243 MAGE Cedric 3:10:14 SEM ALSTOM M 1869
244 DE HERTOG Dani 3:10:19 V2M AFRIT 7 M 1289
245 BETOURNE Gerard 3:10:20 V2M - M 1090
246 BONNARD Julien 3:10:27 SEM - M 1127
247 VANLIERDE Marc 3:10:32 V1M - M 2246
248 CANLERS Olivier 3:10:37 SEM - M 1197
249 AS Altis Ibm Dpi 3:10:39 EQ - 3902
250 RIVOAL Patrick 3:10:40 V1M - M 2091
251 DELVART Franck 3:10:42 V1M - M 1377
252 REMY Sylvain 3:10:47 V2M - M 2074
253 MARTINAGE Farid 3:10:48 SEM - M 1895
254 ULTRe Eric 3:10:58 V1M - M 2214
255 BECART Bernard 3:11:00 V2M CACB M 1067
256 FLAJOLET Herve 3:11:09 SEM - M 1538
257 LAMMENS Francois 3:11:21 SEM - M 1727
258 DELAVAL Vincent 3:11:31 SEM - M 1342
259 VERIER Philippe 3:11:35 V1M COURIR ? SEC BO M 2016
260 ROUSSEL Didier 3:11:35 V1M COURIR ? SEC BO M 2104
261 NESVADBA Francois 3:11:49 SEM - M 1970
262 COCQ Guy 3:11:52 V1M - M 1241
263 CATTACIN Jean Luc 3:11:53 V1M - M 1206
264 GRASSELLI Sabrina 3:11:58 SEF - F 1624
265 GRASSELLI Ricardo 3:11:59 V1M - M 1623
266 LALAU Michel 3:12:02 V2M PHALEMPIN AC M 1722
267 DOUBLET Lionel 3:12:04 V1M - M 1445
268 LEHMANN Philippe 3:12:08 V1M - M 1795
269 FOURNIER Vincent 3:12:12 SEM - M 1557
270 DELAMAIDE Herve 3:12:20 V1M - M 1334
271 MODRZEJEWSKI Stephane 3:12:22 SEM - M 1930
272 RANCHIN Christophe 3:12:22 V1M ESPACE TRAIL DU M 2061
273 DUFOSSE Franck 3:12:27 V1M - M 1476
274 METSU Stephanie 3:12:33 SEF - F 1918
275 POORTEMAN Gilles 3:12:48 V1M - M 2035
276 LECANU Jerome 3:12:49 SEM CHTI LUTTE HEIN M 1759
277 BEAUMEZ Pierre 3:12:49 V1M - M 1065
278 DURIEZ Olivier 3:13:06 SEM AC OUTREAU M 1501
279 GO Eugene 3:13:07 V2M AS ALTIS IBM DP M 1604
280 ANSEL Gerard 3:13:08 V2M - M 1033
281 WILLAUME Matthieu 3:13:20 SEM - M 2305
282 OOSTLAND Stephane 3:13:25 SEM GTC M 1983
283 BULTEL Jean Christophe 3:13:28 V1M - M 1188
284 LEMAIRE Bertrand 3:13:31 SEM - M 1802
285 DAGBERT Daniel 3:13:48 V1M - M 1275
286 DUBOIS Bernard 3:13:49 V1M 020585441836MV2 M 1455
287 PERDRIX Serge 3:13:54 V1M JE COURS POUR L M 2008
288 DETHOREY Arnaud 3:13:56 SEM - M 1421
289 DUSAUTOIR Nicolas 3:13:56 SEM - M 1502
290 COSAERT Hugues 3:14:07 V2M - M 1256
291 MATRINGHEN Tony 3:14:07 SEM - M 1901
292 DERNIS Xavier 3:14:09 V1M - M 1401
293 ROULAND Denis 3:14:16 V1M - M 2100
294 DEBOUVER Gerard 3:14:24 V1M - M 1296
295 DELABROYE Yann 3:14:30 V1M ESCAP AVENTURE M 1330
296 BERDIN Valerie 3:14:46 V1F - F 1080
297 MEIRSMAN Bernard 3:14:46 V1M CPLP LAMBRES LE M 1905
298 MASSET Frederic 3:14:55 SEM - M 1897
299 THERY Bernard 3:14:56 V1M AS KIABI M 2191
300 PIERRON Hugues 3:14:58 V1M - M 2022
301 BABILLOTTE Philippe 3:15:04 V1M ALSACE LATTITUD M 1042
302 DESMARESCAUX Gauthier 3:15:10 SEM - M 1413
303 KOCAJ Jean Jacques 3:15:18 SEM - M 1706
304 COUSIN Benoit 3:15:20 SEM - M 1259
305 JEANNE Alexandre 3:15:21 SEM ESN M 1693
306 BEN Cyril 3:15:24 SEM - M 1076
307 LACROIX Yoann 3:15:25 SEM - M 1716
308 GOBERT Bruno 3:15:31 V1M - M 1605
309 MOUSSAY Laurent 3:16:02 V1M - M 1954
310 BEAUFILS Erwanig 3:16:09 SEM - M 1063
311 DEMON Francois 3:16:10 V1M - M 1383
312 MUYL Arnaud 3:16:19 SEM - M 1960
313 CLERBOUT Marc 3:16:21 V1M COURIR ENSEMBLE M 1238
314 DUCAMP Jean Michel 3:16:22 V1M COURIR ENSEMBLE M 1464
315 DECERF Olivier 3:16:25 SEM - M 1303
316 LEGAGNEUR Maurice 3:16:26 V2M SAINT MARTIN AT M 1785
317 LEBLANC Patrick 3:16:26 SEM - M 1753
318 LEFRANC Olivier 3:16:30 SEM SAINT MATIN ATH M 1782
319 MONTEUUIS Dominique 3:16:32 V2M ALUMINIUM DUNKE M 1938
320 CLAUSE Philippe 3:16:33 V1M - M 1235
321 BRICHE Quentin 3:16:34 SEM - M 1172
322 DEMEYERE Laurence 3:16:39 SEF - F 1382
323 LEROUGE Olivier 3:16:45 SEM - M 1823
324 BOROWIAK Philippe 3:16:48 SEM - M 1136
325 SANDRIN Nathalie 3:16:50 SEF - F 2118
326 DELPLACE Jean Noel 3:16:53 V1M ECLATES DE PERU M 1372
327 QUeHEN Franz 3:16:54 SEM - M 2054
328 DE GRAUW Marco 3:17:07 V1M - M 1287
329 DELPIERRE Frederic 3:17:14 V2M - M 1369
330 SEGUIN Jean Michel 3:17:14 V2M - M 2132
331 ANDRE Valentin 3:17:17 ESM US MERY SUR OIS M 1028
332 LHERBIER David 3:17:17 SEM LA CALOTERIE M 1838
333 FEBWIN Guillaume 3:17:20 SEM - M 1528
334 VERLAINE Igor 3:17:21 SEM TRISPEED MAMER M 2265
335 SGARD Bertrand 3:17:25 V1M - M 2145
336 DUCORROY Herve 3:17:26 V1M - M 1467
337 DELECOUR Christophe 3:17:31 V1M - M 1354
338 GUILBERT Thierry 3:17:32 SEM AC OUTREAU M 1643
339 HOUNJE Freddy 3:17:35 V2M - M 1678
340 JUTTEAU Ivane 3:17:44 V1F CAP CONDe F 1700
341 VAN DER HERTEN Kenneth 3:17:54 SEM - M 2224
342 JOLY Gauthier 3:17:56 SEM ASDH M 1695
343 DOLCE Philippe 3:17:56 V1M - M 1442
344 DURAND Fabien 3:18:04 V1M - M 1498
345 KUROWSKI Vincent 3:18:04 SEM - M 1709
346 DUBOIS Thierry 3:18:06 SEM FC HeRINNES M 1458
347 DEPINOY Jeoffrey 3:18:27 SEM - M 1391
348 BIOT Cyrille 3:18:30 SEM - M 1106
349 DEBOUDT Christophe 3:18:30 V1M - M 1294
350 CRIGNON Patrick 3:18:33 V2M - M 1267
351 CRETAL Laurent 3:18:34 V1M IOG ABLAIN M 2324
352 DAUMONT Jean Francois 3:18:37 SEM CSLG DOUAI M 1283
353 VAN ONACKER Michael 3:18:42 SEM - M 2228
354 MATON Antoine 3:18:44 SEM - M 1900
355 LESAGE Marc 3:18:46 SEM - M 1828
356 FASQUEL Vincent 3:18:51 SEM - M 1522
357 CASTELAIN Jean Louis 3:18:52 V1M FOULEES SAINGHI M 1204
358 VERRA Alex 3:18:53 V1M A.S. DU LOTO M 2267
359 LEENS Pierre 3:19:09 V1M - M 1777
360 RASSAERTS Rudi 3:19:10 V1M JOKA M 2066
361 MORY Christophe 3:19:19 SEM - M 1950
362 VERWAERDE Alexandre 3:19:31 SEM - M 2271
363 DOMISE Sebastien 3:19:37 SEM ASCEBSD M 1443
364 LEHAIRE Xavier 3:19:57 V1M MEVE M 1794
365 DUBOIS David 3:20:14 V1M JOGGING AVENTUR M 1456
366 STERMANN Nathalie 3:20:26 V1F - F 2170
367 BOSSUT Pascal 3:20:26 V1M - M 1139
368 LEBORGNE Yannick 3:20:27 SEM - M 1756
369 STROBBE Frederic 3:20:27 SEM - M 2171
370 GIRAUD Albert 3:20:34 V1M - M 1598
371 GUERVILLE Michel 3:20:35 V2M LA CALOTERIE M 1637
372 BERQUIER Guillaumme 3:20:37 SEM - M 1083
373 DUFOUR Philippe 3:20:41 V1M VELAINES M 2323
374 SPILLIAERT Florence 3:20:43 SEF - F 2165
375 LAMIRAND Benoit 3:20:45 SEM - M 1726
376 MOLCRETTE Laurent 3:20:47 V1M CHTI'S JOGGEURS M 1931
377 BOSSU Dominique 3:20:47 V2F OPALE CLEMENT C F 1ere V2F 1138
378 ROUTIER Vincent 3:20:56 SEM LA CALOTERIE M 2108
379 WINTEIN Johan 3:20:57 SEM RFCL M 2312
380 LIPPENS Eric 3:21:03 V1M - M 1847
381 HENNEUSE Judith 3:21:11 SEF - F 1664
382 DEJTER Patrick 3:21:25 V2M - M 1326
383 DRUON Xavier 3:21:31 SEM - M 1453
384 BERTIN Sebastien 3:21:33 SEM COLEMBERT M 1087
385 BLONDEEL Eleonore 3:21:40 SEF - F 1116
386 HERCHIN Frederic 3:21:41 V1M - M 1667
387 LECOURT Antoine 3:21:44 SEM ERQUINGHEM RUNN M 1771
388 LECUYER Geoffroy 3:21:52 SEM - M 1772
389 RANCON Frederic 3:21:52 V1M OLYMPIQUE AIRE M 2062
390 LEDEZ Pascal 3:21:58 V1M - M 1775
391 MAGNE Frederic 3:22:00 V1M - M 1870
392 LELONG Vincent 3:22:06 SEM NAOURS RUN AND M 1801
393 FALEMPIN Sylvain 3:22:09 SEM - M 1519
394 SCHRIVE David 3:22:11 SEM - M 2129
395 BAILLARD Thierry 3:22:13 V1M - M 1046
396 TAFFIN Eddy 3:22:13 SEM - M 2179
397 MUYL Stephane 3:22:14 SEM - M 1961
398 BARBRY Jean Paul 3:22:16 V1M R.C.BLENDECQUES M 1054
399 LETAILLE Cedric 3:22:18 SEM - M 1832
400 ANQUEZ Thierry 3:22:22 V1M - M 1032
401 PRUVOST Laurent 3:22:22 V1M - M 2048
402 VANDAELE Jerome 3:22:32 SEM - M 2234
403 LABRADOR Juan Carlos 3:22:38 SEM - M 1713
404 PRINCE Frederic 3:22:43 V1M - M 2047
405 DAS DORES Jerome 3:22:46 SEM - M 1282
406 QUANDALLE Philippe 3:22:50 V1M - M 2053
407 PIDOUX Jean Claude 3:22:53 V3M COURIR CANTON D M 1er V3M 2019
408 LEFAIRE Hugo 3:22:55 SEM - M 1778
409 DUBOIS Philippe 3:23:00 V1M - M 1457
410 DELAIRE Luc 3:23:07 SEM - M 1332
411 WACOGNE Philippe 3:23:07 V1M - M 2277
412 BRIDELANCE Philippe 3:23:11 V2M RCA ARRAS M 1174
413 MALIAR Marc 3:23:15 V1M - M 1877
414 RABU Sebastien 3:23:16 SEM - M 2058
415 PLANCKE Laurent 3:23:19 V1M - M 2027
416 BOULLET Ludovic 3:23:20 SEM - M 1152
417 DELAMBRE Jean Pierre 3:23:22 V1M FOULEES SAINGHI M 1336
418 SOYEZ Julie 3:23:24 ESF - F 1ere Espoir F 2162
419 BUISINE Laurent 3:23:25 V1M FOULEES SAINGHI M 1185
420 FOUCAULT Christian 3:23:35 V3M TRIATHLON LITTO M 1552
421 DELEBECQUE Michel 3:23:41 V1M - M 1353
422 VALY Marc 3:23:42 V1M - M 2222
423 VANDE GHINSTE Christophe 3:24:02 V1M BORN TO RUN M 2236
424 WORME Regis 3:24:11 V2M MEVE M 2313
425 LeONARD Laurent 3:24:23 SEM - M 1810
426 CROWET Florence 3:24:24 V1F E.T.CHIEVRES F 1268
427 LOTTE David 3:24:33 SEM ACVA M 1856
428 ODET Christian 3:24:43 V2M - M 1980
429 POQUET Tony 3:25:08 SEM - M 2036
430 FONTAINE Xavier 3:25:23 V1M - M 1546
431 POUILLY Sebastien 3:25:29 SEM - M 2039
432 LUYPAERT Armand 3:25:34 V2M CAPUCIENENLOPER M 1863
433 CHIODO Luigi 3:25:39 SEM - M 1225
434 BONVALET Alain 3:25:41 V1M - M 1134
435 RESILLOT Jacques 3:25:42 V1M - M 2080
436 FURIC Frederic 3:25:44 V1M AS ALTIS IBM DP M 1566
437 RIVENEZ Michael 3:25:44 SEM - M 2088
438 LAVOINE Frederic 3:25:48 V1M - M 1739
439 GA NETDINOFF Herve 3:25:48 V1M - M 1571
440 RICHART Pierre 3:25:51 V1M - M 2084
441 SCAFARTO Franck 3:25:52 V1M - M 2121
442 HUREZ Romuald 3:25:53 V1M - M 1683
443 GALLEZ Jerome 3:25:58 V1M AC OUTREAU M 1572
444 DUBREUCQ Laurent 3:26:00 V1M MARCHATHLON M 1459
445 MORDACQ Didier 3:26:10 SEM - M 1941
446 DEVERS Bernard 3:26:11 V2M AS DU DISTRICT M 1424
447 SMOL Christophe 3:26:16 ESM - M 2155
448 NR 2339 3:26:19 XXX - 2339
449 BEAUVOIS Gerard 3:26:29 V1M SAINT MARTIN AT M 1066
450 THIESSARD Marc 3:26:36 V2M - M 2195
451 PERCEVAUX David 3:26:39 SEM - M 2007
452 DELVOYE Luc 3:26:40 V1M COLEMBERT M 1378
453 BIENIOSZEK Fabrice 3:26:41 SEM - M 1097
454 TRIFFET Annie 3:26:47 V1F - F 2206
455 VANDOOREN Benjamin 3:26:51 SEM - M 2243
456 LEMESRE Pierre 3:26:56 SEM - M 1807
457 BReVER Jean Francois 3:26:59 SEM - M 1170
458 PICQUE Romuald 3:27:00 SEM - M 2018
459 LABERIE Frederic 3:27:24 V1M STADE LONGUENES M 1710
460 PIPART Frank 3:27:24 V1M - M 2024
461 EVRARD Dominique 3:27:27 V2M STADE LONGUENES M 1515
462 MERLIER Alain 3:27:28 SEM - M 2319
463 SOWINSKI Fabrice 3:27:30 SEM - M 2161
464 POTEAU Franck 3:27:37 V1M - M 2038
465 WATTINNE Sylvain 3:27:38 SEM - M 2293
466 BERTIN Jose 3:27:51 V2M COLEMBERT M 1086
467 BOUTLEUX Francis 3:27:55 V2M INDIVIDUEL M 1162
468 DARRE Regis 3:28:01 V2M - M 1281
469 HAUSPIE Cedric 3:28:10 SEM - M 1654
470 YOT Frederic 3:28:14 V1M - M 2315
471 HUYGHE Thomas 3:28:27 ESM - M 1684
472 LYCKE Jens 3:28:29 SEF - F 1864
473 THERY Christophe 3:28:37 V1M - M 2193
474 THERY Christine 3:28:46 V1F - F 2192
475 VERDONCKT Etienne 3:28:56 SEM - M 2258
476 JOLY Thierry 3:29:02 V1M - M 1697
477 DELAMARE Franck 3:29:04 V1M - M 1335
478 ALBESA Bruno 3:29:04 V1M CONTINENTAL M 1012
479 LANGLET Thierry 3:29:04 V1M - M 1732
480 BOUDARD Yvanic 3:29:06 SEM TRANSPOLE M 1145
481 FOSSET Frederic 3:29:07 V1M - M 1551
482 MORINIERE Olivier 3:29:10 SEM - M 1947
483 FOURNIER Raynald 3:29:10 SEM - M 1556
484 BAYLON David 3:29:21 SEM - M 1060
485 GORIN Cyrille 3:29:24 V1M - M 1612
486 MUSSOTTE Laurent 3:29:27 V1M - M 1958
487 CABLE Yohann 3:29:32 SEM - M 1191
488 CHAMBION Jean Marc 3:29:38 V1M - M 1214
489 COOREMANS Guy 3:29:39 V1M RC NAMUR M 1250
490 LANGHENDRIES Xavier 3:29:42 V2M E.T.CHIEVRES M 1731
491 VERRIEZ Gilles 3:29:45 V2M SEVELNORD M 2269
492 LEGRAND Olivier 3:30:06 SEM AC OUTREAU M 1789
493 WIECZOREK Thierry 3:30:06 V1M USBCO M 2302
494 LEQUEUX Sylvain 3:30:06 SEM - M 1819
495 GOBERT Gregory 3:30:11 SEM - M 1606
496 FOURNEAU Thierry 3:30:14 V1M DALKIA M 1554
497 CALLIEU Benoit 3:30:17 SEM - M 1194
498 DELOZIERE Christophe 3:30:17 SEM - M 1368
499 CAPPE Jean Pierre 3:30:26 V3M LA CALOTERIE M 1199
500 NOURY Jean Philippe 3:30:31 SEM - M 1973
501 BAERT Guillaume 3:30:42 SEM - M 1044
502 DUQUENNOY Romain 3:30:56 V2M - M 1497
503 MELCHIOR Eric 3:30:57 V1M - M 1906
504 DELATTRE Bruno 3:30:57 V2M - M 1339
505 GIROUD Franck 3:31:00 SEM - M 1600
506 FOUTERET Philippe 3:31:08 V1M FOULEES SAINGHI M 1558
507 GRAVE Sandrine 3:31:13 SEF JOG GAZELEC DOU F 1626
508 VANCASSEL William 3:31:22 SEM - M 2231
509 GUYOT Fabien 3:31:38 SEM - M 1645
510 BECQUET Aurelie 3:31:40 SEF AC OUTREAU F 1069
511 BECQUET David 3:31:41 SEM - M 1070
512 BRUNAUX Patrice 3:31:42 V1M F.A. WASQUEHAL M 1181
513 JOLY Pierre 3:31:44 V2M - M 1696
514 LEPETZ Olivier 3:31:45 SEM TEAM AIRSPIRE M 1815
515 BOURRE Simon 3:31:50 SEM - M 1160
516 DURIEZ Jeremy 3:31:51 SEM AC OUTREAU M 1500
517 BLEYS Pascal 3:31:58 V1M FROZEN-BANANAS M 1115
518 VANBIERVLIET Dorothee 3:32:02 SEF - F 2230
519 SWINNEN Vincent 3:32:05 SEM - M 2174
520 SPIROUX Julien 3:32:08 SEM - M 2166
521 LOOTVOET Franck 3:32:10 V1M RCE M 1853
522 LEGRAND Patrice 3:32:10 V2M R.C.BLENDECQUES M 1790
523 WACSIN Christophe 3:32:12 V1M - M 2278
524 TACHEUX Didier 3:32:13 V1M - M 2177
525 LELONG Gilbert 3:32:19 V2M VAL DE SOMME M 1800
526 ROUPIN Laurent 3:32:23 SEM - M 2101
527 CAUET Christophe 3:32:26 V1M - M 1210
528 DELAPORTE Benoit 3:32:29 SEM - M 1338
529 BOCQUET Nicolas 3:32:42 SEM - M 1119
530 MOTTE Alexis 3:32:44 SEM - M 1951
531 RICQ Pascal 3:32:45 V1M - M 2085
532 DELeGLISE Jeremy 3:32:48 SEM - M 1356
533 URBAIN Nathalie 3:32:56 V1F FSGT 59 OMS ANI F 2216
534 VANCAYSEELE Patrick 3:32:57 V1M - M 2232
535 LIEVIN Anthony 3:32:59 SEM - M 1841
536 RENARD Xavier 3:33:00 SEM - M 2320
537 LE NAVENEC Eric 3:33:02 SEM CAP CONDE M 1743
538 WATINE Antony 3:33:03 SEM - M 2289
539 DE GROOTE Pascal 3:33:09 V1M - M 1288
540 MERZOUG Alain 3:33:13 V2M - M 1911
541 FREMAUX Gregory 3:33:20 SEM - M 1562
542 COLIN Lou 3:33:26 V1M - M 1245
543 DECHERF Jean Pascal 3:33:29 SEM - M 1304
544 ALVES DOS SANTOS Vincent 3:33:39 V1M - M 1021
545 BRUGE Bruno 3:33:42 V1M OLYMPIQUE AIRE M 1179
546 AMBROSY Damien 3:33:43 SEM BC LOOS M 1025
547 VANDERMEULEN Muriel 3:33:45 SEF - F 2239
548 WILLEMS Pierre 3:33:55 V1M - M 2308
549 BORRIN Pierre 3:33:56 V1M - M 1137
550 LEULLIETTE Olivier 3:33:59 SEM - M 1834
551 LEROY Christophe 3:34:01 V1M - M 1826
552 BECQUET Laurence 3:34:02 SEF - F 1071
553 VEERMAN Johan 3:34:02 V1M - M 2254
554 VERGRIETE Olivier 3:34:06 V1M - M 2261
555 CHAKER Lasser 3:34:07 SEM - M 1212
556 MACAREZ Philippe 3:34:09 SEM - M 1866
557 WILLIATTE Christophe 3:34:10 V2M - M 2310
558 NR 2333 3:34:10 XXX - 2333
559 VANDERWEYEN Patrick 3:34:12 V2M - M 2240
560 DURAND CHEVAL Clotilde 3:34:14 V1F CALH JOGGING F 1499
561 CORDIER Pauline 3:34:14 V1F - F 1254
562 LEROUX Philippe 3:34:15 V1M - M 1825
563 DANET Stephanie 3:34:18 V1F ERQUINGHEM RUNN F 1278
564 LAINE Claudine 3:34:18 SEF RC NAMUR F 1720
565 MARQUEZE Anne Lorraine 3:34:19 SEF US MARQUETTE F 1890
566 DESCHAMPS Vincent 3:34:19 V2M - M 1408
567 LEPETZ Karine 3:34:28 SEF TEAM AIRSPIRE F 1814
568 MOREL Willy 3:34:29 SEM AC OUTREAU M 1945
569 LEBUFFE Gilles 3:34:31 V1M - M 1758
570 VALENTIN Bruno 3:34:36 SEM - M 2219
571 NAVARRE Claude 3:34:37 V1M - M 1967
572 LEBLOND Isabelle 3:34:38 SEF AC WAMBRECHIES F 1755
573 THUMERELLE Laurent 3:34:40 V1M NAOURS RUN AND M 2197
574 DUQUENNE Christophe 3:34:42 V1M - M 1495
575 VERMERSCH Cedric 3:34:44 SEM - M 2266
576 LEGRAND Michel 3:34:46 V2M FOULEES SAINGHI M 1788
577 GAVOIS Christophe 3:34:48 SEM - M 1583
578 DELORRIER Bernard 3:34:54 V1M - M 1366
579 DARCY Gerard 3:34:57 V1M - M 1279
580 MILLE Laurent 3:34:58 SEM - M 1922
581 VANDERZYPPE Ludovic 3:35:03 V1M - M 2241
582 DESCORDE Jacques 3:35:18 V1M - M 1409
583 DROCOURT Sylvain 3:35:20 V1M - M 1449
584 DEMETTRE Mickael 3:35:22 SEM - M 1381
585 SERGENT Helene 3:35:23 SEF VASCQ TRIATHLON F 2139
586 WILLEMS Eric 3:35:26 SEM - M 2306
587 CATOIRE Fabrice 3:35:30 V1M JOGGING CLUB FR M 1205
588 MULLET Christophe 3:35:34 SEM - M 1957
589 VERGRIETE Yohan 3:35:35 SEM - M 2262
590 VANKEMMEL Yannick 3:35:36 SEM - M 2245
591 AMAZ Laurent 3:35:38 SEM - M 1023
592 FERTON Eric 3:35:49 V1M - M 1532
593 LEGRAND Sylvain 3:35:50 V1M - M 1792
594 RAHYER David 3:35:50 SEM CAP CONDE M 2059
595 DEROUBAIX Delphine 3:35:56 V1F FOULeES AVELINO F 1402
596 DELCOUR Isabelle 3:36:00 V1F - F 160
597 BEAUGENDRE Edouard 3:36:04 V1M - M 1064
598 HENEMAN Chriostophe 3:36:05 V1M COURIR ? GRAVEL M 1660
599 CHUDY Aline 3:36:06 SEF FOULeES AVELINO F 1230
600 POCHON Georges 3:36:07 V3M - M 2032
601 POULAIN Matthieu 3:36:24 SEM AS PAF COQUELLE M 2041
602 DEBRUXELLES Alain 3:36:24 XXX - 1300
603 DEPRETZ Sebastien 3:36:33 SEM - M 1395
604 LOCQUENEUX Bernard 3:36:42 V1M LES TRACEUR DE M 1849
605 VIGREUX Renaud 3:36:45 SEM - M 2276
606 BERDELOU Michel 3:36:55 V2M - M 1079
607 MAES Etienne 3:37:19 V2M COLEMBERT M 1867
608 SERGENT Eric 3:37:19 V2M COLEMBERT M 2138
609 POULAIN Eric 3:37:21 V1M COLEMBERT M 2040
610 NEYRINCK Christophe 3:37:30 V1M - M 1972
611 PEROUCHET Jean Philippe 3:37:31 V1M ES ARQUES M 2010
612 DUCAMP Jean Jacques 3:37:32 V1M COURIR ENSEMBLE M 1462
613 ANDRE Stephane 3:37:37 V1M USMERY SUR OISE M 1027
614 GRAF Olivier 3:37:49 SEM - M 1619
615 WEMELLE Alain 3:37:50 V1M - M 2297
616 PECQUEUX Laurent 3:38:14 V2M CONFLANS M 2001
617 THIBEAU Nicolas 3:38:16 SEM - M 2194
618 CESARZ Stephane 3:38:30 SEM CCFHP M 1211
619 REANT Frederique 3:38:31 SEF RUNNING CLUB EP F 2067
620 REBENA Jean Bernard 3:38:34 V1M - M 2068
621 HENNEQUEZ Laurent 3:38:39 SEM NAOURS RUN AND M 1663
622 DELSAUTE Francoise 3:38:40 V2F TENDONS DeTENDU F 1374
623 ROUSSEAU Mauricette 3:38:40 V1F - F 2102
624 DELORRIER David 3:38:46 SEM CAP SUR LA FORM M 1367
625 GREVIN Manuel 3:38:46 SEM - M 1629
626 FIERS Regis 3:38:50 V2M JC BILLY BERCLA M 1534
627 TURBOT Jean Pierre 3:38:53 V2M ALUMINIUM DUNKE M 2213
628 DEVEYER Benoit 3:38:53 V1M - M 1425
629 ISAMBOURG Chaterine 3:39:01 SEF - F 1685
630 MOREL Vincent 3:39:02 SEM - M 1944
631 LASSELIN Patrick 3:39:15 V1M - M 1734
632 HENAUT Cedric 3:39:39 SEM - M 1659
633 DUCROCQ Nicolas 3:39:52 XXX - 1469
634 WATERLOT Philppe 3:39:53 V1M - M 2287
635 CLAEYSSEN Gerard 3:39:55 V1M - M 1233
636 VANACKER Laurence 3:39:57 SEF - F 2229
637 DELBECQ Cyril 3:40:00 SEM - M 1345
638 FONTAINE Marc 3:40:03 V2M - M 1544
639 HANQUIEZ Alain 3:40:05 V1M - M 1648
640 BRICHE Eric 3:40:20 V2M ST MARTIN BOULO M 1171
641 LEROUGE David 3:40:20 SEM - M 1821
642 DUHAMEL Aurelien 3:40:21 SEM - F 1479
643 FLIPO Thomas 3:40:25 V1M - M 1541
644 LAMBLIN Christophe 3:40:25 V1M LES POINTURES M 1725
645 DUCAMP Jean Marc 3:40:31 V1M COURIR ENSEMBLE M 1463
646 WILLEMS Ludovic 3:40:32 SEM - M 2307
647 ABACHIN Jean Marc 3:40:33 SEM - M 1010
648 BODARD Yolande 3:40:36 V1F - F 1120
649 SAUVAGE Patrick 3:40:38 V1M PORT AVENTURE D M 2120
650 HOUBART Franck 3:40:41 SEM - M 1677
651 RUYTOOR Dominique 3:40:45 V2M - M 2111
652 BOUCKSON Philippe 3:40:46 V2M MEVE M 1143
653 MONTAGNE Dominique 3:40:48 XXX - 1937
654 SALOME Jacques 3:40:52 V1M - M 2117
655 ALARY Julien 3:40:57 SEM - M 1011
656 CHIRAT Didier 3:41:00 SEM - M 1226
657 LEGER Erick 3:41:03 V1M - M 1786
658 DEROUBAIX Rapha 3:41:03 V1M FOULeES AVELINO M 1403
659 GALVAIRE Christophe 3:41:08 V1M JOGGING CROSS B M 1573
660 ISORE Pascal 3:41:11 V2M - M 1687
661 LEROUGE Fred 3:41:16 SEM - M 1822
662 PRYSTUPA Serge 3:41:19 V2M - M 2050
663 AUGUSTA Francois 3:41:23 V2M F.A. WASQUEHAL M 1040
664 HECQUET Guillaumme 3:41:29 V1M - M 1657
665 GREMONT Romuald 3:41:33 SEM LA CALOTERIE M 1628
666 CHARLES Stephan 3:41:39 SEM RCB M 1218
667 SEVRIN Antoine 3:41:46 SEM - M 2144
668 DESMANET Samuel 3:41:47 SEM GERPINNES ET CO M 1412
669 DEHONGHER Gregory 3:41:52 SEM - M 1322
670 TKOCZ Maxime 3:41:54 ESM - M 2199
671 THELIER Ludovic 3:41:56 V1M TAMASHII M 2190
672 PAAL Marguerite 3:42:12 V1F - F 1986
673 COLLET Thierry Marie 3:42:23 V1M PLANETE RUNNING M 1247
674 SIRTAINE Jean Loup 3:42:27 V2F - F 2151
675 BUTEL Stephane 3:42:28 SEM - M 1190
676 MAGNIER Laurent 3:42:34 V2M - M 1873
677 PIRAS Bruno 3:42:35 V1M - M 2026
678 DEWAELE Nicolas 3:42:42 SEM TRITONS MELDOIS M 1429
679 HANQUIEZ Frederic 3:42:42 SEM - M 1649
680 LAHOREAU Nicolas 3:42:48 SEM - M 1718
681 GOGIEN Frederic 3:42:52 SEM VEOLIA EAU M 1609
682 BRUGE Guy 3:42:59 V4M COURIR DANS LE M 1er V4M 1180
683 PRIGENT Christian 3:43:02 V1M INTERTECHNIQUE M 2046
684 TISSIERE Remy 3:43:06 V3M ASC CUTS M 2198
685 LOUVET Christophe 3:43:14 V1M - M 1858
686 ROBINO Philippe 3:43:19 SEM - M 2095
687 DE MAEN Olivier 3:43:20 V1M JE COURS POUR L M 1292
688 DUCRET Alain 3:43:25 V1M - M 1468
689 BOUTLEUX Guy 3:43:28 V2M - M 1163
690 DUTERTE Denys 3:43:41 SEM - M 1508
691 COTTREAU Jean Daniel 3:43:49 V2M - M 1257
692 MERRIEN Micheline 3:43:50 V2F - F 1910
693 LOLIVIER Nicolas 3:43:54 SEM - M 1851
694 VEIL Denis 3:43:55 V1M MASC M 2256
695 CZAICKI Bertrand 3:43:55 SEM - M 1272
696 EGGERMONT Thibaut 3:43:58 SEM - M 1512
697 METAYER Pascal 3:44:04 V1M COLEMBERT M 1915
698 RANSON Romain 3:44:05 ESM - M 2065
699 GAGNEUX Louis 3:44:06 V1M - M 1568
700 WIART Francoise 3:44:10 V1F DENAIN AC F 2298
701 WIART Frederic 3:44:10 XXX - 2299
702 DEVAUX Aurelien 3:44:11 SEM - F 1422
703 NAEGELS Christine 3:44:11 SEF - F 1962
704 GIRARD Cyril 3:44:25 V2M INTERTECHNIQUE M 1597
705 MESMACQUE Ga lle 3:44:27 SEF - F 1913
706 MIZON Frederique 3:44:27 SEF - F 1927
707 VEZILIER Mick 3:44:28 V2M JOGGING CLUB BI M 2272
708 FREMAUX Guillaume 3:44:28 SEM - M 1563
709 METSU Franck 3:44:46 SEM - M 1917
710 MINET Patrick 3:44:47 SEM - M 1924
711 GUILBERT Chantal 3:44:49 V1F OLYMPIQUE AIRE F 1641
712 PLATEEL Didier 3:44:56 V1M CHTI COUREUR M 2028
713 KACZMAREK Staphane 3:44:58 SEM - M 1702
714 KACZMAREK Jose 3:45:03 V2M - M 1701
715 DUCHENE Daniel 3:45:23 V2M AC WAMBRECHIES M 1466
716 LEGRAND Christophe 3:45:36 SEM - M 306
717 EVRARD Geoffrey 3:45:37 SEM - M 201
718 SERGEANT Cedric 3:45:40 SEM - M 2135
719 CATTEAU Pascal 3:45:42 V1M - M 1209
720 PINGUET Isabelle 3:45:43 V1F CHTI'TRIATLILLE F 2023
721 CATTEAU Jean Pierre 3:45:44 V1M - M 1208
722 DHUIEGE Gerard 3:45:44 V2M CHTI'TRIATLILLE M 1436
723 GUERNALEC Rene 3:45:54 V2M PLM CONFLANS M 1636
724 GUERNALEC Catherine 3:45:54 V2F PLM CONFLANS F 1635
725 HOCHEDEZ David 3:45:56 SEM - M 1673
726 SILLIG Vincent 3:45:57 SEM CLUB OPEN M 2149
727 HOFMAN Philippe 3:46:07 V1M - M 1674
728 BEAUGRAND Louis 3:46:09 XXX - 2325
729 DESBONNETS Christophe 3:46:10 SEM - M 1404
730 DELABRE Walter 3:46:12 V1M - M 1329
731 FAVIEZ Francois 3:46:13 V1M - M 1526
732 PIRARD Jean Luc 3:46:15 V1M - M 2025
733 FONTAINE Francois 3:46:16 V1M - M 1543
734 PAYELLEVILLE Vincent 3:46:20 V1M - M 1999
735 GITS Alain 3:46:24 V1M - M 1601
736 GHESTIN Bernard 3:46:31 V1M - M 1589
737 DEBRIL Laurent 3:46:47 SEM - M 1298
738 BAILLY Renaud 3:46:48 SEM A.C.AUDOMAROIS M 1048
739 LABORDE Gilbert 3:46:58 V2M ARAVO M 1711
740 HELLIN Bernard 3:47:01 V3M LA GORGUE ATHLE M 1658
741 KUKLEWICZ Laurence 3:47:01 V1F AC WAMBRECHIES F 1708
742 LAMBLIN Antoine 3:47:03 SEM - M 1724
743 FIEVET Dominique 3:47:13 V1M - M 1535
744 CHARLET Olivia 3:47:14 SEF FECHAIN ATHLETI F 1220
745 VAN HEIREWEGHE Charlotte 3:47:14 V1F COURIR ? SEC-BO F 2244
746 TRENTESAUX Teddy 3:47:15 SEM 800 BURNINGS CR M 2204
747 ROUSSEL Vincent 3:47:17 V1M - M 2107
748 VAN MOERKERCKE Bruno 3:47:24 V1M - M 2227
749 BRIMEUX Ludovic 3:47:28 SEM AMICALE DES HOS M 1176
750 TOULEMONDE Geoffroy 3:47:31 V1M LES POINTURES M 2201
751 MATHON Pierre Francois 3:47:31 V1M USTOURCOING M 1899
752 DEGAND Justin 3:47:31 ESM - M 1316
753 BRIMEUX Pierre 3:47:33 V2M AMICALE HOSPITA M 1177
754 SEGARD Pascal 3:47:36 V2M - M 2131
755 GAReNAUX Stephane 3:47:40 V1M - M 1578
756 LEMENAGER Dominique 3:47:43 V2M - M 1806
757 PREVOTEAU Christophe 3:47:45 SEM - M 2045
758 BELLENGUEZ Arnaud 3:47:46 SEM - M 1075
759 CONIAT Laurent 3:47:53 V1M FOULEES SAINGHI M 1249
760 MIREAU Philippe 3:47:54 V2M FOULEES SAINGHI M 1926
761 LOUVRIER Vincent 3:47:55 V1M TRIATH M 1859
762 BODEL Franck 3:47:58 SEM - M 1123
763 NOYELLE Merri 3:48:06 SEM - M 1975
764 BERNARD Fabrice 3:48:13 SEM - M 1082
765 OLESINSKI Ludovic 3:48:13 SEM - M 1981
766 CHEMIN Thomas 3:48:14 ESM - M 1224
767 ISAMBOURG Jean Luc 3:48:16 V1M - M 1686
768 PRANGER Daniel 3:48:23 SEM - M 2044
769 LINSKI Jessy 3:48:23 SEM PASS RUNNING M 1845
770 VANNOORENBERGHE Emmanuel 3:48:25 V1M COLEMBERT M 2247
771 GRAIDE Christian 3:48:30 V2M - M 1620
772 PERRIN Frederic 3:48:32 SEM ENTENTE MARITIM M 2012
773 BeTOURNe Nathalie 3:48:33 SEF - F 1091
774 GEILER Francois 3:48:35 V2M - M 1584
775 DUVIEUBOURG Jean Marc 3:48:44 V2M - M 1510
776 GILBERT Antoine 3:48:45 SEM VEOLIA EAU M 1594
777 FERLA Romain 3:48:49 SEM - M 1530
778 VERDY Jacques 3:49:02 V2M - M 2259
779 WELTER Daniel 3:49:05 SEM - M 2296
780 EVERAERT Bernard 3:49:06 V2M CACB M 1514
781 DELBROUCQ David 3:49:07 XXX - 1347
782 DELBART Isabelle 3:49:32 SEF JE COURS POUR L F 1343
783 LELEU Thierry 3:49:33 V1M JE COURS POUR L M 1799
784 VANCOILLIE Dominique 3:49:33 V2M - M 2233
785 MANSSENS Nicolas 3:49:35 V1M ASCAI M 1879
786 MASSEMIN Jean Marie 3:49:35 V1M ASCAI M 1896
787 COLSON Jacky 3:49:36 V2M ASCAI M 1248
788 PICAVET Yannick 3:49:44 SEM - M 2017
789 BOULLET Laetitia 3:49:46 SEF - F 1151
790 DESMET Yves 3:49:47 V2M - M 1415
791 PORICHE Frederic 3:50:03 V1M - M 2037
792 MIZON Jerome 3:50:05 SEM - M 1928
793 DHEM Pierre 3:50:07 SEM - M 1433
794 TREBUTIEN Frederic 3:50:07 SEM - M 2203
795 SOISSON Franck 3:50:09 SEM - M 2159
796 DUCASSE Philippe 3:50:20 V2M - M 1465
797 DEZEQUE Dominique 3:50:24 XXX - 1432
798 SOCKEEL Caroline 3:50:28 SEF - F 2156
799 PERRIN Cyril 3:50:29 SEM - M 2011
800 PECKEU Bruno 3:50:30 V1M AJCAP M 2000
801 LEGRAND Alexandre 3:50:31 SEM JCAP CAPPELOIS M 1787
802 BELIN Albert 3:50:35 V2M - M 1073
803 CARON Lyuba 3:50:36 V3F - F 1ere V3F 1202
804 NATHIEZ Christian 3:50:42 V1M OMS ANICHE M 1966
805 BOULARD Denis 3:50:43 V2M - M 1150
806 BOURRADA Carole 3:50:48 V1F - F 1159
807 BOURRADA Brahim 3:50:49 V1M - M 1158
808 WARNEZ Francis 3:50:53 V2M CHTI TRIAT LILL M 2284
809 VERIER Sophie 3:50:54 SEF COURIR A SEC BO F 2264
810 DEMONCHY Catherine 3:51:04 V1F JGC BULLY-LES-M F 1384
811 GENET Serge 3:51:04 V1M - M 1585
812 GOSSELIN Martine 3:51:05 V1F LES AJT F 1614
813 TARISSI Nicolas 3:51:05 SEM - M 2181
814 WILLARD Nathalie 3:51:06 V1F - F 2304
815 WAGON Thierry 3:51:08 V2M - M 2279
816 PENNEMAN Ludovic 3:51:19 V1M FOULEE AVELINOI M 2004
817 DELANNOY Laurent 3:51:20 SEM - M 1337
818 GOURNAY Maxime 3:51:34 SEM - M 1618
819 WINOCQ Alexandre 3:51:35 SEM YDES ATHLETISME M 2311
820 GHESTIN Marie Paule 3:51:39 V2F - F 1590
821 FERLA Emmanuelle 3:51:45 SEF - F 1529
822 BOUCHE Jackie 3:51:46 V3M - M 1141
823 TRUY Jean Philippe 3:52:00 SEM - M 2210
824 URBAIN Ginette 3:52:03 V2F - F 2215
825 GRANDFILS Eric 3:52:04 V2M - M 1621
826 GOUDEFROYE Alain 3:52:08 V2M COURIR AU MONT M 1616
827 MAQUAIRE Carole 3:52:14 V1F - F 1881
828 POCHET Yann 3:52:15 V1M - M 2030
829 HERTAULT Jacques 3:52:18 V2M - M 1670
830 ANSEL Patrice 3:52:36 V1M CDN M 1034
831 CALLENS Gaetan 3:52:43 SEM - M 1193
832 GOTTRAND Michel 3:52:44 V2M - M 1615
833 LECLERCQ Christophe 3:52:52 SEM - M 1763
834 KIENZEL Dephine 3:52:54 SEF PICQUIGNY RUNNI F 1704
835 BONTE Philippe 3:52:55 V2M JOGGANS M 1133
836 DERASSE Nicolas 3:52:56 SEM - M 1400
837 GAGNEUX Sylvain 3:52:57 V1M - M 1569
838 GOURLET Thomas 3:52:58 V1M - M 1617
839 DIERENDONCK Patrick 3:52:59 V1M JOGGINGCLUB WEV M 1440
840 DEJONGHE Timon 3:52:59 V1M JOGGING CLUB WE M 1325
841 DUVAL Herve 3:53:02 SEM AC OUTREAU M 1509
842 DESEILLE Philippe 3:53:05 V1M - M 1411
843 DEJONGH Alexandre 3:53:05 SEM - M 1324
844 WILLIAMSON Nathalie 3:53:17 V1F - F 2309
845 LEMAIRE Franck 3:53:20 V1M - M 1804
846 CHIVET Pascal 3:53:40 V2M ORAPEAU LE PORT M 1227
847 SCALA Laurent 3:53:41 V1M - M 2122
848 LEBLANC Alexandre 3:53:42 SEM SURINER'S MARAT M 1749
849 LEBLANC Yohann 3:53:42 SEM SURINER'S MARAT M 1754
850 PIERRE Bruno 3:53:45 SEM PICQUIGNY RUNNI M 2021
851 MORIN Vincent 3:53:45 SEM LA PATRIOTE CRO M 1946
852 MOREL Veronique 3:53:47 SEF PLM CONFLANS F 1943
853 BOUDET Richard 3:53:51 SEM COM BAGNIEUX M 1146
854 ANDRIVON Isabelle 3:53:51 V1F CHTIRAID F 1030
855 ANDRIVON Luc 3:53:53 V1M CHTIRAID M 1031
856 LECHNIAK Frederic 3:54:01 V2M - M 1761
857 BOULY Stephanie 3:54:06 SEF COLEMBERT F 1153
858 BIERMAN Patricia 3:54:12 V1F ASCAI F 1099
859 STANISZEWSKI Catherine 3:54:13 SEF - F 2168
860 DEHAUT Ludovic 3:54:18 SEM - M 1321
861 LETERRIER Veronique 3:54:19 V1F - F 1833
862 GRULOIS Joseph 3:54:23 V3M - M 1631
863 MUSUMECI Bruno 3:54:24 V2M - M 1959
864 HAUW Mathieu 3:54:27 SEM - M 1655
865 CISSELLO David 3:54:27 SEM - M 1232
866 NR 2335 3:54:28 XXX - 2335
867 LOOTENS Felix 3:54:28 V2M - M 1852
868 DEMAZIERE Jean Pierre 3:54:29 V2M - M 1379
869 ROUSSEL Laurent 3:54:30 SEM - M 2105
870 AMIARD Denis 3:54:30 SEM - M 1026
871 SOLITAIRE Nadine 3:54:36 V3F ST MARTIN F 2160
872 DELOHEN Loic 3:54:37 SEM - M 1365
873 LEGRAND Sebastien 3:54:51 SEM OMS ANICHE M 1791
874 GUILBAUT Christophe 3:54:55 V1M - M 1640
875 THELIER Claude 3:55:01 V1M - M 2189
876 SCHNEIDER Emmanuel 3:55:09 V1M - M 2127
877 DESSAUX Frederic 3:55:11 V1M - M 1418
878 RENAUD Vincent 3:55:13 SEM - M 2077
879 DEWASTE Jean Claude 3:55:24 V2M COURIRENSEMBLE M 1430
880 DESTEIRDT Jean Raymond 3:55:24 V1M COURIR ENSEMBLE M 1419
881 GLEDIC Gregory 3:55:34 SEM - M 1602
882 BOURGHELLE Matthieu 3:55:35 SEM - M 1156
883 LAMOUR Bernard 3:55:46 V1M - M 1728
884 BALLENGHIEN Olivier 3:56:02 V1M AS KIABI M 1049
885 DUEZ Frederic 3:56:05 V2M JCPLP LAMBRES M 1472
886 GAILLARD Francoise 3:56:26 V1F COURIR AU MONT F 1570
887 BERRIER Laurent 3:56:29 SEM - M 1084
888 BOUTILLIER Sebastien 3:56:31 SEM - M 1161
889 LIONET Victor 3:56:31 ESM - M 1846
890 HOLARD Etienne 3:56:32 SEM - M 1675
891 COULON Xavier 3:56:33 SEM - M 1258
892 LEROUX Jerome 3:56:42 SEM - M 1824
893 LOURME Freddy 3:56:43 V1M - M 1857
894 ROBE Mickael 3:56:53 SEM ASS CAP CONDE M 2093
895 LEGRAND Sylvie 3:56:59 V1F FOULEES SAINGHI F 1793
896 CZARNECKI Stephane 3:57:19 SEM - M 1273
897 BLOT Emmanuel 3:57:29 SEM - M 1117
898 FRERE Christelle 3:57:34 V1F - F 1564
899 MOLCRETTE Marie Noelle 3:57:38 SEF - F 1932
900 MOLCRETTE Vincent 3:57:38 V1M - M 1933
901 VAN LOOK Carine 3:57:39 SEF - F 2226
902 CONRARDY Claude 3:57:49 V2M - M 115
903 GRUSON Christophe 3:57:51 V1M - M 1632
904 CASIER Marie Dominique 3:57:53 V1F - F 1203
905 DUMETZ Thierry 3:57:53 V1M MEVE M 1484
906 MONFREGOLA Francoise 3:57:58 SEF - F 1935
907 DZIEDZIC Frederic 3:57:58 V1M - M 1511
908 RANSON Denis 3:58:05 V2M - M 2063
909 DE BOIS Francois 3:58:09 V2M - M 1285
910 VANDE VELDE Martine 3:58:12 V2F - F 2237
911 TARTORAS Andreas 3:58:13 SEM - M 2183
912 NAZARETH Olivier 3:58:21 SEM - M 1968
913 DESCAMPS Patrice 3:58:27 V1M - M 1407
914 SZYJA Francois 3:58:32 V2M - M 2176
915 COINE Guillaume 3:58:36 SEM CH'TI RAIDEURS M 1243
916 TORLOTTING Nicolas 3:58:38 SEM - M 2200
917 VERET Philippe 3:58:42 V2M - M 2260
918 LE PAPE Guenole 3:58:52 V1M - M 1744
919 GAVEL Gregory 3:58:54 SEM - M 1582
920 BIA Herve 3:59:01 V1M - M 1092
921 FONTAINE Marc 3:59:03 V2M - M 1547
922 LECLERCQ Lucile 3:59:07 V1F PICQUIGNY RUNNI F 1765
923 VERDEGHEM Florence 3:59:07 SEF PICQUIGNY RC F 2257
924 DROUET Alexandre 3:59:15 SEM ATHLeTISME CLUB M 1450
925 THOMAS Jean Yves 3:59:20 V2M GALLY ATHLeTIC M 2196
926 SIEBIERSKI Sylvie 3:59:29 V1F AJCAP F 2147
927 DROUET Damien 3:59:40 SEM - M 1451
928 VALETTE Thierry 3:59:44 SEM - M 2221
929 GRUSON Didier 3:59:49 V1M - M 1633
930 LEBAS Jean 4:00:01 V2M LA CALOTERIE OM M 1747
931 BALZAT Sonia 4:00:01 SEF ETHIAS F 1050
932 BALTUS Renaud 4:00:02 SEM ETHIAS M 33
933 BLANCHET Brigitte 4:00:10 V2F - F 1109
934 LAZERON Laurent 4:00:13 SEM - M 1740
935 MERIOT Christiane 4:00:19 SEF WAMBRECHIES F 1909
936 DERAED Corinne 4:00:20 V1F ACW F 1398
937 DUQUENNE Marc 4:00:25 V1M - M 1496
938 BARBIER Edwige 4:00:35 V1F - F 1052
939 MARCQ Stephane 4:00:38 SEM - M 1885
940 FASQUEL Bruno 4:00:42 V2M - M 1521
941 DEGUINE Jerome 4:00:51 SEM - M 1320
942 VAN HULLE Patrick 4:01:06 V2M VELAINES M 2225
943 CREPIN Raphael 4:01:19 SEM - M 1261
944 BUSSCHAERT Marie Claude 4:01:34 V1F LE SOUFFLE D'OR F 1189
945 LEQUENNE Olivier 4:01:43 SEM - M 1818
946 MOULINS Christine 4:01:47 V1F - F 1953
947 MOULINS Christian 4:01:48 V1M - M 1952
948 BIENFAIT Jean Claude 4:01:52 V1M - M 1095
949 TERRIER Pierre 4:01:55 SEM - M 2185
950 BOULANGER Christian 4:01:57 V2M TRI CLUB BOULON M 1149
951 CRIGNON Genevieve 4:02:01 V2F SAINT MARTIN AT F 1266
952 LEGAGNEUR Christine 4:02:01 V2F SAINT MARTIN AT F 1784
953 HEROUART Stephane 4:02:02 V1M - M 1669
954 SCHAACK Nico 4:02:11 V2M C.A.SCHIFFLANGE M 416
955 BILE Alain 4:02:21 V1M CACB M 1103
956 HUMERY Lydie 4:02:26 SEF - F 1681
957 BIENFAIT Nicolas 4:02:32 ESM - M 1096
958 COATANEA Vincent 4:02:50 V1M - M 1240
959 DELFORGE Laurent 4:02:52 SEM - M 1359
960 WIDHEN Alain 4:02:56 V1M - M 2300
961 WIDHEN Dorothee 4:02:57 V1F - F 2301
962 DELAIRE Gregory 4:02:58 SEM - M 1331
963 BIENIOSZEK Michael 4:03:01 SEM - M 1098
964 DESMARESCAUX Virginie 4:03:27 SEF - F 1414
965 BAFFA Angelo 4:03:31 V2M FOULeES AVELINO M 1045
966 OBERT Frederic 4:03:37 V1M CACB M 1978
967 MARTIN Yves 4:03:42 V2M - M 1894
968 TETART Olivier 4:03:51 V1M - M 2187
969 BONNEFONT Christine 4:03:54 V1F PLM CONFLANS F 1128
970 LIN Magali 4:03:56 SEF S/L ASUL BRON F 1844
971 DUPONT Philippe 4:04:06 V2M LE DRAPEAU M 1492
972 HAU Fabienne 4:04:15 V1F JEUNESSE CAPELL F 1653
973 SIEBIERSKI Jean Francois 4:04:15 V1M JCAP CAPPELOIS M 2146
974 HAU Eric 4:04:16 V1M JEUNESSE CAPELL M 1652
975 COLIN Richard 4:04:18 V3M ASUD JOGGING M 1246
976 NATANNI Christophe 4:04:30 V1M - M 1965
977 LAINE Stephane 4:04:34 SEM - M 1721
978 GANTIER Yves 4:04:36 V1M - M 1575
979 DA COSTA Isabelle 4:04:52 SEF - F 1274
980 HUNOT Lionel 4:04:57 V1M CHARTRES MeTROP M 1682
981 BLASCZYK Christophe 4:04:58 SEM - M 1114
982 SMAL Herve 4:04:59 V2M NO MACCADAM STA M 2154
983 NR 1263 4:05:12 XXX - 1263
984 DEPOIX Frederic 4:05:13 SEM - M 1392
985 DELENCLOS Hubert 4:05:17 V1M - M 1357
986 DELALIN eric 4:05:29 SEM - M 1333
987 SOYEZ Pascal 4:05:47 V1M PICQUIGNY RC M 2163
988 JOLY Fabienne 4:05:52 V1F - F 1694
989 LEPAGE Claude 4:05:52 V3M - M 1811
990 LEPAGE Nelly 4:05:52 V2F - F 1812
991 WIERCIOCK Bernard 4:06:08 V1M JCPLP LAMBRES L M 2303
992 LACROIX Patrick 4:06:09 V2M - M 1715
993 MOLMY Willy 4:06:33 V1M A.C BONNE HUMEU M 1934
994 BUCKMAN Laetitia 4:06:36 SEF - F 1184
995 NR 2330 4:06:37 XXX - 2330
996 DEVIGNES Gerard 4:06:49 V1M - M 1427
997 BOURIEZ Alain 4:06:55 V2M - M 1157
998 SPIGUELAIRE Monique 4:07:08 V2F ACA BEAUVAIS F 2164
999 WARNAULT Luc 4:07:09 V1M NESTLe BEAUVAIS M 2283
1000 PART Rodolphe 4:07:11 SEM TEAM RAIDLIGHT M 1992
1001 PART Francis 4:07:11 V3M - M 1991
1002 BOURLET Jean Philippe 4:07:13 V1M - M 70
1003 LESCEQUE Rodolphe 4:07:16 SEM - M 1830
1004 THAING Moy 4:07:17 SEF - F 2188
1005 BARROIS Jerome 4:07:17 SEM AC VILLENEUVE D M 1055
1006 LECLERCQ Philippe 4:07:19 V3M - M 1767
1007 CLAVIEZ Dimitri 4:07:42 SEM SAPEUR-POMPIER M 1236
1008 SUFFYS David 4:07:42 SEM SAPEUR-POMPIER M 2173
1009 SIGNORE David 4:07:42 ESM SAPEUR-POMPIER M 2148
1010 SAISON Pascal 4:07:45 V1M LES GAZELLES M 2115
1011 BAILLEUL Alexis 4:07:48 SEM RONCHIN ATHLETI M 26
1012 ANTOINE Benoit 4:07:53 V1M - M 1036
1013 ANTOINE Laetitia 4:07:53 V1F - F 1037
1014 MARTENS Pascale 4:08:01 V1F VACH F 1892
1015 DEGEEST Guido 4:08:03 V2M VACH M 1317
1016 DEFOSSE Francoise 4:08:04 SEF - F 1314
1017 LEIGNEL Pascal 4:08:08 V2M - M 1797
1018 HENNEBERT Luc 4:08:11 V2M - M 1662
1019 ALEXIS Carl Eric 4:08:14 SEM - M 1016
1020 SERGENT Laurent 4:08:22 V2M COLEMBERT M 2141
1021 DUCROQUET Michel 4:08:23 V3M COLEMBERT M 1470
1022 BOYER Karine 4:08:23 SEF BERCK ATHLETISM F 1165
1023 SOMMER Franck 4:08:27 V1M - M 428
1024 DEPREST Niek 4:08:27 V1F - F 1394
1025 TACQUENIER Georges 4:08:34 XXX - 2178
1026 BECART Francoise 4:08:42 V1F PASS RUNNING F 1068
1027 MENET Christel 4:09:34 SEF - F 1907
1028 BONNET Helene 4:09:53 V1F - F 1131
1029 BIA Vincent 4:09:56 V1M - M 1093
1030 RENARD Jean Marc 4:10:18 V2M - M 2075
1031 VANDENDRIESSCHE Philippe 4:10:19 V1M - M 2238
1032 MABILLE Vincent 4:10:20 V1M - M 1865
1033 SANTOS Jean Francois 4:10:21 SEM - M 2119
1034 BELLANGER Marc 4:10:21 SEM - M 1074
1035 BERTRAND Douglas 4:10:48 SEM - M 1089
1036 BAILLIEZ Alban 4:11:07 V1M - M 1047
1037 FRANCE Manuela 4:11:08 V1F - F 1559
1038 LEFRANCOIS Philippe 4:11:09 V2M - M 1783
1039 QUIVRON Jean Paul 4:11:45 V3M ATHLEHALLUIN VA M 2056
1040 SERGENT Johan 4:11:50 SEM - M 2140
1041 BONNET Dorothee 4:12:24 V1F PRFM F 1130
1042 DUBUS Daniel 4:12:27 V3M - M 1461
1043 LAHOCHE Jerome 4:12:39 SEM - M 1717
1044 NR 2334 4:12:40 XXX - 2334
1045 MERETTE Jean Pierre 4:13:48 V1M - M 1908
1046 BRIFFAUT Francis 4:13:48 XXX CA CAUCHOIS 1175
1047 LECOCQ Yannick 4:13:59 XXX - 1769
1048 DECOSTER Dominique 4:14:05 V1M AS SPORTIVE D'H M 1307
1049 FAUCHILLE Olivier 4:14:08 V2M - M 1524
1050 CHAMBION Chantal 4:14:15 V1F - F 1213
1051 BULTEAU Sybille 4:14:17 V1F - F 1186
1052 DUCROUX Thierry 4:14:17 V1M - M 1471
1053 GUYOT David 4:14:19 SEM ARTOIS ATHLETIS M 1644
1054 DUPERRON Jacques 4:14:19 V2M - M 1489
1055 ORAIN Herve 4:14:29 V2M JA MELESSE M 1984
1056 FERSNER Veronique 4:14:31 V1F OLYMPIQUE AIRE F 1531
1057 DEI TIGLI Laurent 4:14:34 SEM - M 1323
1058 BIGARD Mathieu 4:14:35 SEM - M 1101
1059 AMALRIC Michel 4:14:36 V2M JOGGING AVENTUR M 1022
1060 VAILLANT Claire 4:14:42 V1F - F 2217
1061 PRUVOT Olivier 4:14:58 V1M AMICALE VAL DE M 2049
1062 CHARLET Jean 4:15:10 V2M - M 1219
1063 WASILEWSKI Stephane 4:15:13 V1M - M 2285
1064 CHAPELLE Carole 4:15:32 V1F RC NAMUR F 1215
1065 MAGNeE Michel 4:15:33 V1M RC NAMUR M 1871
1066 GILLES Veronique 4:16:32 V1F - F 1596
1067 POILLY Christian 4:16:36 V2M - M 2033
1068 LEDEZ Jean Luc 4:16:45 V1M - M 1774
1069 DIDRY Sebastien 4:16:59 SEM - M 1438
1070 REVEL Fatima 4:17:09 V1F MASC F 2081
1071 MAGNERON Pascale 4:17:09 V1F MASC F 1872
1072 BONNEL Isabelle 4:17:11 SEF - F 1129
1073 LAMOUR Sebastien 4:17:15 SEM - M 1729
1074 DUSSART Christophe 4:17:58 SEM - M 1503
1075 RORIVE Geraldine 4:18:06 SEF - F 2098
1076 DELCOURT Bernard 4:18:06 V1M - M 1348
1077 DUPONT Anne Priscille 4:18:16 V1F - F 1491
1078 CORDELETTE Isabelle 4:18:16 V1F - F 1253
1079 LEVIEL Gilles 4:18:16 SEM - M 1836
1080 LEENKNEGT Frederic 4:18:17 V1M - M 1776
1081 VERVELLE Christine 4:18:32 V1F COURIR ? BAISIE F 2270
1082 LARDE Guy 4:18:56 V2M - M 1733
1083 CHUDY David 4:18:57 V1M - M 1231
1084 GENTY Philippe 4:18:58 XXX - 1586
1085 DEFROMONT Jean Luc 4:19:06 V2M - M 1315
1086 DROCOURT Olivier 4:19:08 V1M - M 1448
1087 GARENAUX Frederic 4:19:09 V2M COLEMBERT M 1577
1088 LEBLANC Catherine 4:19:32 SEF - F 1750
1089 DECERF Isabelle 4:19:32 SEF - F 1302
1090 DEVAUX Frederic 4:19:33 SEM - M 1423
1091 VANPARYS Patrck 4:19:33 V2M - M 2249
1092 VIDOR Rodolphe 4:19:33 SEM - M 2273
1093 REICHERT Remy 4:19:45 V2M TEAM RAIDLIGHT M 2071
1094 MAILLOT Jean Louis 4:20:00 V1M - M 1875
1095 DELCROIX Philippe 4:20:08 V1M - M 1350
1096 FONTAINE Regis 4:20:09 V1M LES GAZELLES M 1545
1097 DELUARD Christophe 4:20:18 SEM - M 1375
1098 CARON Florent 4:20:25 XXX - 1201
1099 ROMANOWSKA Joanna 4:20:47 SEF - F 2097
1100 VANDAMME Gonzague 4:20:57 SEM - M 2235
1101 BRELOT Philippe 4:21:01 V2M - M 1167
1102 DESOUTTER Laurent 4:21:41 SEM - M 1416
1103 GIKIERE Pierre Emmanuel 4:21:46 SEM - M 1593
1104 FOURNIER Nicolas 4:22:24 SEM - M 1555
1105 BLARY Lucie 4:22:27 ESF LONGUENESSE NAT F 1113
1106 SCHEYVEN Genevieve 4:22:56 V1F RC NAMUR F 2125
1107 LE PRUNENEC Christine 4:22:56 V1F - F 1745
1108 LE PRUNENEC Emmanuel 4:22:57 V1M - M 1746
1109 DEBELS Berangere 4:22:59 V1F - F 1293
1110 DELBART Marion 4:22:59 SEF - F 1344
1111 BERTHE Patrick 4:23:04 V2M - M 1085
1112 BRIMEUX Stephane 4:23:06 SEM - M 1178
1113 SALEMBIER Guillaume 4:23:06 SEM - M 2116
1114 BAUDELET Yohann 4:23:07 SEM - M 1059
1115 LAURENT Francois 4:23:41 SEM - M 1736
1116 HERVOUET Sonia 4:24:06 SEF AVIACLUB ISSY L F 1671
1117 DUFLOS Adeline 4:24:13 SEF - F 1474
1118 PATTE Frederique 4:24:23 V1F - F 1995
1119 MESMACQUE Claude 4:24:43 V2M - M 1912
1120 TRICOT Patrick 4:24:44 V2M - M 2205
1121 ROSA Joaquim 4:25:03 V2M AJCAP M 2099
1122 MAUCCI Jean Marc 4:25:31 V1M ALUMINIUM DUNKE M 1902
1123 LEROY Fabien 4:25:32 SEM - M 1827
1124 GERBAULT Jeremie 4:25:41 SEM - M 1587
1125 JUBLOT Noemie 4:25:41 SEF - F 1699
1126 HENOT Philippe 4:25:51 V2M - M 1665
1127 YVART Beatrice 4:26:07 V1F - F 2316
1128 CATTEAU Dorothee 4:26:07 V1F - F 1207
1129 BASUYAUX Pascale 4:26:08 V1F ATHLE HALLUIN V F 1057
1130 DELERUYELLE Anne 4:26:32 V1F FOULEES SAINGHI F 1358
1131 SERGEANT Christophe 4:26:32 V1M FOULEES SAINGHI M 2136
1132 RAMETTE Philippe 4:27:08 V2M FOULEES SAINGHI M 2060
1133 ALLARD Sophie 4:27:08 V1F FOULEES SAINGHI F 1017
1134 CORIA Christine 4:27:23 SEF - F 1255
1135 POURIGNAUX Yves 4:27:23 SEM - M 2043
1136 MIREAU Marie Claude 4:27:24 V1F FOULEES SAINGHI F 1925
1137 GUERBEAU Pascale 4:27:25 V1F FOULEES SAINGHI F 1634
1138 COPPIN Albane 4:27:34 V1F - F 1251
1139 DELEGLISE Denis 4:27:57 V1M - M 1355
1140 CANU Martine 4:29:02 V1F AC VEULES F 1198
1141 WYSS Thierry 4:29:02 V2M AC VEULES M 2314
1142 ALBESA Sylvie 4:30:40 V1F RAMBOUILLET SPO F 1013
1143 GORIN Veronique 4:30:40 V1F ATHLE COMPETITI F 1613
1144 NR 2329 4:31:04 XXX - 2329
1145 TROUMP Jean Francois 4:31:17 V1M - M 2208
1146 STUBERT Thierry 4:31:18 SEF - F 2172
1147 LEBLANC Jean Michel 4:31:35 V1M - M 1752
1148 GODINOUX Jacques 4:32:52 V1M - M 1608
1149 BERNARD Cecile 4:33:00 V1F TDT F 1081
1150 CARON Annick 4:33:19 V2F - F 1200
1151 MESMACQUE Vincent 4:33:25 ESM - M 1914
1152 MINARD Laurence 4:34:18 V1F SPORT PLUS F 1923
1153 GERME Fabienne 4:34:18 V1F SPORT PLUS F 1588
1154 HOREMANS David 4:34:21 V1M - M 1676
1155 SKRZYPEZAK Marian 4:34:51 V3M - M 2153
1156 GIAMMICHELE Giuseppe 4:34:52 V2M JE COURS POUR L M 1591
1157 DESEILLE Christel 4:35:01 V1F - F 1410
1158 MARCHAND Chantal 4:35:26 V1F - F 1884
1159 DEWASTE Maryline 4:35:42 V2F COURIR ? BAISIE F 1431
1160 VALENTIN Andre 4:37:03 V2M FFBMP LES PANA M 2218
1161 FASQUELLE Franck 4:38:57 V1M - M 1523
1162 LUCAS Guy 4:39:48 V3M CEUX MU LAC VIA M 1862
1163 DELHOMEL Raphaelle 4:42:03 V1F - F 1362
1164 MOOLHUYSEN Cecile 4:42:56 V1F PAC F 1940
1165 DOREMUS Thibaud 4:42:58 SEM - M 1444
1166 OBERT Frederic 4:43:23 V1M - M 1977
1167 BRIDELANCE Brigitte 4:43:43 V3F - F 1173
1168 BOURGEOIS Corinne 4:43:46 SEM JEUNESSE CAPELL F 1155
1169 BOUCHE Philippe 4:43:48 V2M - M 1142
1170 DESSAUVAGES Francois 4:43:49 V1M - M 1417
1171 LIETAR Benoit 4:43:52 V1M - M 1839
1172 REMERAND Julien 4:43:53 SEM - M 2073
1173 EMPISSE Remi 4:44:39 SEM - M 1513
1174 SCHELFHOUT Annie 4:45:31 V3F JOGGANS F 2123
1175 PERRIN Jean Charles 4:46:32 V1M LES TRAILERS DE M 2013
1176 PERRIN Laurence 4:46:32 V1F LES TRAILERS DE F 2014
1177 VANWAMBEKE Elise 4:46:48 SEF - F 2250
1178 GACIARZ Aline 4:47:18 V2F ASC CUTS F 1567
1179 DEBROUCKE Gervais 4:47:36 V2M - M 1299
1180 DE KWANT Wim 4:47:37 V1M PAC M 138
1181 VAUGEOIS Yann 4:48:40 SEM - M 2253
1182 MALLON Annie 4:54:26 V1F LIB AIR TRAIL F 1878
1183 GUESDES Bruno 4:54:26 V1M LIB AIR TRAIL M 1638
1184 DUHAMEL Simonne 4:55:46 V2F - F 1481
1185 DUEZ Violette 4:57:42 V2F JCPLP LAMBRES L F 1473
1186 WATRIN Rene 4:59:49 V1M - M 2291
1187 BIERMAN Vincent 4:59:50 V1M ASCAI M 1100
1188 CODRON Cecile 5:05:09 SEF - F 1242
1189 FRELECHOUX Bernard 5:17:52 V3M - M 1561
1190 BULTEL Catherine 5:26:02 SEM - M 1187
1191 VANPARYS Catherine 5:26:03 V1F - F 2248
1192 PLOCKYN Veronique 5:45:21 V1F OLYMPIQUE AIRE F 2029
1193 PARSIS Nicolas 6:39:01 V1M COURIR A BAISIE M 364


ReferencementCe site est listé dans la catégorie Sport : Sports extrêmes Dictionnaire
| Accueil | La Réunion  Vue du ciel | Météo | Cyclones | Volcan | Cirques de Mafate , Cilaos , Salazie | Photos Randonnées | Randonnées Réunion: Randos Espiègle , Courses montagne | Diagonale des Fous |  Marathon des Sables | Voyages Les stats du site | Fonds écran | Plan du site | Blog de runraid | Galerie photos Sport Réunion |